sensor_id;sensor_type;location;lat;lon;timestamp;pressure;altitude;pressure_sealevel;temperature;humidity
71057;BME280;58380;48.312;9.246;2022-12-08T07:42:36;92854.56;;;-6.20;100.00
71057;BME280;58380;48.312;9.246;2022-12-08T07:45:02;92869.13;;;-6.12;100.00
71057;BME280;58380;48.312;9.246;2022-12-08T07:47:28;92860.25;;;-6.10;100.00
71057;BME280;58380;48.312;9.246;2022-12-08T07:49:53;92814.63;;;-6.22;100.00
71057;BME280;58380;48.312;9.246;2022-12-08T07:52:19;92836.63;;;-6.05;100.00
71057;BME280;58380;48.312;9.246;2022-12-08T07:54:44;92810.03;;;-6.12;100.00
71057;BME280;58380;48.312;9.246;2022-12-08T07:57:11;92856.88;;;-5.66;100.00
71057;BME280;58380;48.312;9.246;2022-12-08T07:59:36;92786.84;;;-6.19;100.00
71057;BME280;58380;48.312;9.246;2022-12-08T08:02:02;92865.00;;;-5.47;100.00
71057;BME280;58380;48.312;9.246;2022-12-08T08:04:27;92843.28;;;-5.59;100.00
71057;BME280;58380;48.312;9.246;2022-12-08T08:06:53;92877.06;;;-5.33;100.00
71057;BME280;58380;48.312;9.246;2022-12-08T08:09:18;92862.09;;;-5.44;100.00
71057;BME280;58380;48.312;9.246;2022-12-08T08:11:44;92782.41;;;-5.95;100.00
71057;BME280;58380;48.312;9.246;2022-12-08T08:14:09;92796.25;;;-5.90;100.00
71057;BME280;58380;48.312;9.246;2022-12-08T08:16:35;92791.06;;;-5.81;100.00
71057;BME280;58380;48.312;9.246;2022-12-08T08:19:00;92845.69;;;-5.43;100.00
71057;BME280;58380;48.312;9.246;2022-12-08T08:21:26;92876.00;;;-5.24;100.00
71057;BME280;58380;48.312;9.246;2022-12-08T08:23:51;92861.78;;;-5.20;100.00
71057;BME280;58380;48.312;9.246;2022-12-08T08:26:17;92833.97;;;-5.31;100.00
71057;BME280;58380;48.312;9.246;2022-12-08T08:28:42;92844.25;;;-5.31;99.75
71057;BME280;58380;48.312;9.246;2022-12-08T08:31:10;92851.94;;;-5.16;99.73
71057;BME280;58380;48.312;9.246;2022-12-08T08:33:36;92869.44;;;-5.05;99.58
71057;BME280;58380;48.312;9.246;2022-12-08T08:36:06;92828.28;;;-5.26;99.63
71057;BME280;58380;48.312;9.246;2022-12-08T08:38:36;92859.41;;;-5.00;100.00
71057;BME280;58380;48.312;9.246;2022-12-08T08:41:08;92845.44;;;-4.90;100.00
71057;BME280;58380;48.312;9.246;2022-12-08T08:43:34;92835.72;;;-4.95;100.00
71057;BME280;58380;48.312;9.246;2022-12-08T08:46:01;92806.53;;;-5.02;100.00
71057;BME280;58380;48.312;9.246;2022-12-08T08:48:28;92826.38;;;-4.74;100.00
71057;BME280;58380;48.312;9.246;2022-12-08T08:50:56;92796.63;;;-4.84;100.00
71057;BME280;58380;48.312;9.246;2022-12-08T08:53:23;92841.53;;;-4.43;100.00
71057;BME280;58380;48.312;9.246;2022-12-08T08:55:49;92833.88;;;-4.30;100.00
71057;BME280;58380;48.312;9.246;2022-12-08T08:58:15;92854.84;;;-4.12;100.00
71057;BME280;58380;48.312;9.246;2022-12-08T09:00:41;92855.31;;;-4.01;99.47
71057;BME280;58380;48.312;9.246;2022-12-08T09:03:07;92790.78;;;-4.43;99.13
71057;BME280;58380;48.312;9.246;2022-12-08T09:05:32;92843.03;;;-3.99;99.42
71057;BME280;58380;48.312;9.246;2022-12-08T09:07:58;92825.97;;;-4.00;99.27
71057;BME280;58380;48.312;9.246;2022-12-08T09:10:23;92832.19;;;-3.88;99.87
71057;BME280;58380;48.312;9.246;2022-12-08T09:12:49;92848.56;;;-3.67;100.00
71057;BME280;58380;48.312;9.246;2022-12-08T09:15:14;92776.19;;;-4.01;100.00
71057;BME280;58380;48.312;9.246;2022-12-08T09:17:40;92843.75;;;-3.36;100.00
71057;BME280;58380;48.312;9.246;2022-12-08T09:20:06;92824.69;;;-3.41;99.81
71057;BME280;58380;48.312;9.246;2022-12-08T09:22:31;92849.41;;;-3.12;100.00
71057;BME280;58380;48.312;9.246;2022-12-08T09:25:04;92809.25;;;-3.28;99.78
71057;BME280;58380;48.312;9.246;2022-12-08T09:27:30;92824.03;;;-3.02;99.88
71057;BME280;58380;48.312;9.246;2022-12-08T09:29:55;92812.50;;;-3.06;100.00
71057;BME280;58380;48.312;9.246;2022-12-08T09:32:21;92781.69;;;-3.21;100.00
71057;BME280;58380;48.312;9.246;2022-12-08T09:34:46;92799.00;;;-2.95;100.00
71057;BME280;58380;48.312;9.246;2022-12-08T09:37:12;92807.41;;;-2.79;100.00
71057;BME280;58380;48.312;9.246;2022-12-08T09:39:37;92817.53;;;-2.58;100.00
71057;BME280;58380;48.312;9.246;2022-12-08T09:42:05;92801.66;;;-2.62;99.86
71057;BME280;58380;48.312;9.246;2022-12-08T09:47:32;92784.56;;;-2.36;99.43
71057;BME280;58380;48.312;9.246;2022-12-08T09:50:28;92819.13;;;-2.04;98.87
71057;BME280;58380;48.312;9.246;2022-12-08T09:53:20;92784.53;;;-2.09;98.64
71057;BME280;58380;48.312;9.246;2022-12-08T09:55:58;92794.84;;;-1.96;97.54
71057;BME280;58380;48.312;9.246;2022-12-08T10:01:16;92785.47;;;-1.84;96.81
71057;BME280;58380;48.312;9.246;2022-12-08T10:03:42;92794.41;;;-1.73;96.53
71057;BME280;58380;48.312;9.246;2022-12-08T10:06:33;92801.13;;;-1.59;97.26
71057;BME280;58380;48.312;9.246;2022-12-08T10:09:32;92792.78;;;-1.54;96.75
71057;BME280;58380;48.312;9.246;2022-12-08T10:18:03;92759.97;;;-1.74;96.07
71057;BME280;58380;48.312;9.246;2022-12-08T10:20:40;92751.63;;;-1.82;95.39
71057;BME280;58380;48.312;9.246;2022-12-08T10:26:02;92784.16;;;-1.41;95.82
71057;BME280;58380;48.312;9.246;2022-12-08T10:28:31;92767.88;;;-1.55;96.42
71057;BME280;58380;48.312;9.246;2022-12-08T10:30:58;92711.66;;;-1.86;94.74
71057;BME280;58380;48.312;9.246;2022-12-08T10:33:24;92769.16;;;-1.33;94.67
71057;BME280;58380;48.312;9.246;2022-12-08T10:35:57;92781.13;;;-1.32;94.72
71057;BME280;58380;48.312;9.246;2022-12-08T10:38:35;92761.22;;;-1.31;94.62
71057;BME280;58380;48.312;9.246;2022-12-08T10:43:36;92757.59;;;-1.30;94.21
71057;BME280;58380;48.312;9.246;2022-12-08T10:46:18;92754.56;;;-1.20;94.88
71057;BME280;58380;48.312;9.246;2022-12-08T10:49:09;92756.88;;;-1.05;95.07
71057;BME280;58380;48.312;9.246;2022-12-08T10:51:40;92750.91;;;-1.06;93.92
71057;BME280;58380;48.312;9.246;2022-12-08T10:56:55;92743.75;;;-1.04;92.21
71057;BME280;58380;48.312;9.246;2022-12-08T10:59:21;92728.16;;;-0.97;92.25
71057;BME280;58380;48.312;9.246;2022-12-08T11:01:50;92747.94;;;-0.78;92.39
71057;BME280;58380;48.312;9.246;2022-12-08T11:04:37;92726.47;;;-0.85;92.71
71057;BME280;58380;48.312;9.246;2022-12-08T11:07:04;92716.84;;;-0.78;92.40
71057;BME280;58380;48.312;9.246;2022-12-08T11:09:41;92669.41;;;-1.03;92.50
71057;BME280;58380;48.312;9.246;2022-12-08T11:12:17;92731.47;;;-0.58;92.28
71057;BME280;58380;48.312;9.246;2022-12-08T11:22:41;92711.00;;;-0.41;90.77
71057;BME280;58380;48.312;9.246;2022-12-08T11:25:08;92714.41;;;-0.48;90.15
71057;BME280;58380;48.312;9.246;2022-12-08T11:27:36;92722.53;;;-0.37;90.19
71057;BME280;58380;48.312;9.246;2022-12-08T11:30:21;92717.69;;;-0.34;90.78
71057;BME280;58380;48.312;9.246;2022-12-08T11:32:53;92717.13;;;-0.36;91.16
71057;BME280;58380;48.312;9.246;2022-12-08T11:35:43;92713.19;;;-0.45;88.24
71057;BME280;58380;48.312;9.246;2022-12-08T11:38:13;92702.38;;;-0.60;89.15
71057;BME280;58380;48.312;9.246;2022-12-08T11:40:42;92696.41;;;-0.61;89.02
71057;BME280;58380;48.312;9.246;2022-12-08T11:46:01;92662.41;;;-0.96;89.77
71057;BME280;58380;48.312;9.246;2022-12-08T11:48:36;92675.06;;;-0.88;89.23
71057;BME280;58380;48.312;9.246;2022-12-08T11:51:38;92695.38;;;-0.85;88.46
71057;BME280;58380;48.312;9.246;2022-12-08T11:54:21;92684.06;;;-0.91;88.52
71057;BME280;58380;48.312;9.246;2022-12-08T11:56:52;92667.78;;;-0.98;89.30
71057;BME280;58380;48.312;9.246;2022-12-08T12:01:58;92689.41;;;-0.85;90.30
71057;BME280;58380;48.312;9.246;2022-12-08T12:04:37;92690.59;;;-0.81;89.52
71057;BME280;58380;48.312;9.246;2022-12-08T12:12:54;92652.81;;;-0.96;88.97
71057;BME280;58380;48.312;9.246;2022-12-08T12:18:59;92645.31;;;-0.79;89.07
71057;BME280;58380;48.312;9.246;2022-12-08T12:21:41;92645.53;;;-0.80;89.11
71057;BME280;58380;48.312;9.246;2022-12-08T12:24:25;92650.81;;;-0.69;89.18
71057;BME280;58380;48.312;9.246;2022-12-08T12:27:05;92640.50;;;-0.75;88.06
71057;BME280;58380;48.312;9.246;2022-12-08T12:29:53;92642.53;;;-0.77;88.27
71057;BME280;58380;48.312;9.246;2022-12-08T12:32:22;92655.94;;;-0.62;85.46
71057;BME280;58380;48.312;9.246;2022-12-08T12:34:53;92597.28;;;-1.00;85.16
71057;BME280;58380;48.312;9.246;2022-12-08T12:37:41;92640.53;;;-0.57;85.22
71057;BME280;58380;48.312;9.246;2022-12-08T12:40:20;92624.38;;;-0.77;78.63
71057;BME280;58380;48.312;9.246;2022-12-08T12:47:50;92640.19;;;-0.85;79.02
71057;BME280;58380;48.312;9.246;2022-12-08T12:52:58;92618.47;;;-0.84;82.20
71057;BME280;58380;48.312;9.246;2022-12-08T13:03:36;92601.78;;;-1.14;75.55
71057;BME280;58380;48.312;9.246;2022-12-08T13:06:05;92634.72;;;-1.02;75.06
71057;BME280;58380;48.312;9.246;2022-12-08T13:08:37;92633.78;;;-1.08;74.51
71057;BME280;58380;48.312;9.246;2022-12-08T13:11:08;92643.72;;;-1.05;73.21
71057;BME280;58380;48.312;9.246;2022-12-08T13:13:36;92583.50;;;-1.50;74.64
71057;BME280;58380;48.312;9.246;2022-12-08T13:16:12;92609.72;;;-1.40;73.59
71057;BME280;58380;48.312;9.246;2022-12-08T13:18:48;92615.03;;;-1.28;74.42
71057;BME280;58380;48.312;9.246;2022-12-08T13:21:20;92598.13;;;-1.31;73.83
71057;BME280;58380;48.312;9.246;2022-12-08T13:24:12;92628.53;;;-0.95;74.06
71057;BME280;58380;48.312;9.246;2022-12-08T13:29:36;92606.78;;;-1.19;75.09
71057;BME280;58380;48.312;9.246;2022-12-08T13:32:50;92614.56;;;-1.19;75.55
71057;BME280;58380;48.312;9.246;2022-12-08T13:34:55;92588.94;;;-1.27;75.43
71057;BME280;58380;48.312;9.246;2022-12-08T13:40:30;92635.28;;;-0.94;76.84
71057;BME280;58380;48.312;9.246;2022-12-08T13:43:15;92593.28;;;-1.27;75.80
71057;BME280;58380;48.312;9.246;2022-12-08T13:45:45;92605.00;;;-1.18;76.28
71057;BME280;58380;48.312;9.246;2022-12-08T13:48:17;92621.22;;;-1.04;76.22
71057;BME280;58380;48.312;9.246;2022-12-08T13:50:55;92605.72;;;-1.11;76.14
71057;BME280;58380;48.312;9.246;2022-12-08T13:53:35;92632.88;;;-0.95;75.39
71057;BME280;58380;48.312;9.246;2022-12-08T13:56:04;92633.13;;;-0.97;75.99
71057;BME280;58380;48.312;9.246;2022-12-08T13:58:35;92589.56;;;-1.32;76.23
71057;BME280;58380;48.312;9.246;2022-12-08T14:01:28;92628.75;;;-1.03;76.34
71057;BME280;58380;48.312;9.246;2022-12-08T14:03:55;92579.78;;;-1.55;75.69
71057;BME280;58380;48.312;9.246;2022-12-08T14:06:35;92632.84;;;-1.14;76.10
71057;BME280;58380;48.312;9.246;2022-12-08T14:09:10;92625.38;;;-1.28;76.29
71057;BME280;58380;48.312;9.246;2022-12-08T14:11:42;92639.88;;;-1.21;76.96
71057;BME280;58380;48.312;9.246;2022-12-08T14:14:26;92603.72;;;-1.34;76.77
71057;BME280;58380;48.312;9.246;2022-12-08T14:17:04;92635.47;;;-1.20;76.52
71057;BME280;58380;48.312;9.246;2022-12-08T14:19:34;92632.25;;;-1.16;76.66
71057;BME280;58380;48.312;9.246;2022-12-08T14:22:10;92587.06;;;-1.45;76.63
71057;BME280;58380;48.312;9.246;2022-12-08T14:24:38;92548.84;;;-1.75;77.22
71057;BME280;58380;48.312;9.246;2022-12-08T14:27:13;92629.94;;;-1.24;76.87
71057;BME280;58380;48.312;9.246;2022-12-08T14:29:51;92626.91;;;-1.21;77.57
71057;BME280;58380;48.312;9.246;2022-12-08T14:32:25;92598.47;;;-1.27;77.17
71057;BME280;58380;48.312;9.246;2022-12-08T14:40:12;92624.25;;;-1.39;76.18
71057;BME280;58380;48.312;9.246;2022-12-08T14:42:47;92603.28;;;-1.63;75.17
71057;BME280;58380;48.312;9.246;2022-12-08T14:45:16;92570.41;;;-1.87;75.52
71057;BME280;58380;48.312;9.246;2022-12-08T14:47:43;92620.53;;;-1.50;75.04
71057;BME280;58380;48.312;9.246;2022-12-08T14:50:41;92638.41;;;-1.42;75.77
71057;BME280;58380;48.312;9.246;2022-12-08T14:53:18;92547.78;;;-1.92;75.15
71057;BME280;58380;48.312;9.246;2022-12-08T14:55:47;92605.25;;;-1.58;75.05
71057;BME280;58380;48.312;9.246;2022-12-08T14:58:19;92634.38;;;-1.38;75.59
71057;BME280;58380;48.312;9.246;2022-12-08T15:00:55;92627.25;;;-1.42;75.34
71057;BME280;58380;48.312;9.246;2022-12-08T15:03:24;92611.38;;;-1.53;74.29
71057;BME280;58380;48.312;9.246;2022-12-08T15:05:56;92549.31;;;-1.84;74.61
71057;BME280;58380;48.312;9.246;2022-12-08T15:08:23;92558.44;;;-1.82;74.26
71057;BME280;58380;48.312;9.246;2022-12-08T15:11:29;92625.97;;;-1.26;75.01
71057;BME280;58380;48.312;9.246;2022-12-08T15:13:56;92501.34;;;-2.12;75.33
71057;BME280;58380;48.312;9.246;2022-12-08T15:21:51;92636.16;;;-1.32;76.47
71057;BME280;58380;48.312;9.246;2022-12-08T15:24:22;92564.00;;;-1.78;76.71
71057;BME280;58380;48.312;9.246;2022-12-08T15:26:49;92598.91;;;-1.62;76.66
71057;BME280;58380;48.312;9.246;2022-12-08T15:31:53;92595.13;;;-1.60;76.99
71057;BME280;58380;48.312;9.246;2022-12-08T15:34:20;92613.41;;;-1.55;77.43
71057;BME280;58380;48.312;9.246;2022-12-08T15:36:48;92580.63;;;-1.67;77.19
71057;BME280;58380;48.312;9.246;2022-12-08T15:39:36;92634.56;;;-1.33;77.17
71057;BME280;58380;48.312;9.246;2022-12-08T15:42:09;92580.63;;;-1.67;76.89
71057;BME280;58380;48.312;9.246;2022-12-08T15:44:36;92624.09;;;-1.44;77.62
71057;BME280;58380;48.312;9.246;2022-12-08T15:47:02;92627.38;;;-1.31;78.44
71057;BME280;58380;48.312;9.246;2022-12-08T15:49:28;92593.06;;;-1.51;76.54
71057;BME280;58380;48.312;9.246;2022-12-08T15:54:35;92631.44;;;-1.41;75.30
71057;BME280;58380;48.312;9.246;2022-12-08T15:57:00;92581.28;;;-1.72;75.83
71057;BME280;58380;48.312;9.246;2022-12-08T15:59:26;92576.91;;;-1.78;76.08
71057;BME280;58380;48.312;9.246;2022-12-08T16:01:51;92575.13;;;-1.78;77.89
71057;BME280;58380;48.312;9.246;2022-12-08T16:04:19;92593.34;;;-1.59;78.03
71057;BME280;58380;48.312;9.246;2022-12-08T16:06:51;92621.50;;;-1.44;76.20
71057;BME280;58380;48.312;9.246;2022-12-08T16:09:36;92615.75;;;-1.46;77.20
71057;BME280;58380;48.312;9.246;2022-12-08T16:12:16;92586.16;;;-1.57;78.02
71057;BME280;58380;48.312;9.246;2022-12-08T16:15:02;92561.72;;;-1.68;74.52
71057;BME280;58380;48.312;9.246;2022-12-08T16:17:28;92551.28;;;-1.80;74.13
71057;BME280;58380;48.312;9.246;2022-12-08T16:19:55;92555.63;;;-1.80;74.26
71057;BME280;58380;48.312;9.246;2022-12-08T16:22:29;92598.25;;;-1.51;75.27
71057;BME280;58380;48.312;9.246;2022-12-08T16:24:58;92603.63;;;-1.53;75.23
71057;BME280;58380;48.312;9.246;2022-12-08T16:27:27;92511.00;;;-2.01;76.41
71057;BME280;58380;48.312;9.246;2022-12-08T16:29:56;92486.13;;;-2.27;77.40
71057;BME280;58380;48.312;9.246;2022-12-08T16:32:24;92556.97;;;-1.71;78.29
71057;BME280;58380;48.312;9.246;2022-12-08T16:34:51;92553.22;;;-1.75;79.03
71057;BME280;58380;48.312;9.246;2022-12-08T16:37:20;92589.44;;;-1.43;79.40
71057;BME280;58380;48.312;9.246;2022-12-08T16:39:48;92573.28;;;-1.70;80.15
71057;BME280;58380;48.312;9.246;2022-12-08T16:42:22;92574.22;;;-1.58;79.95
71057;BME280;58380;48.312;9.246;2022-12-08T16:45:22;92564.31;;;-1.68;80.18
71057;BME280;58380;48.312;9.246;2022-12-08T16:47:57;92600.66;;;-1.49;80.48
71057;BME280;58380;48.312;9.246;2022-12-08T16:50:31;92599.03;;;-1.50;80.36
71057;BME280;58380;48.312;9.246;2022-12-08T16:53:07;92581.03;;;-1.64;80.33
71057;BME280;58380;48.312;9.246;2022-12-08T16:55:35;92532.41;;;-1.87;80.49
71057;BME280;58380;48.312;9.246;2022-12-08T16:58:01;92568.88;;;-1.63;80.21
71057;BME280;58380;48.312;9.246;2022-12-08T17:00:29;92583.31;;;-1.49;80.79
71057;BME280;58380;48.312;9.246;2022-12-08T17:02:55;92581.53;;;-1.55;81.01
71057;BME280;58380;48.312;9.246;2022-12-08T17:05:23;92548.03;;;-1.75;81.34
71057;BME280;58380;48.312;9.246;2022-12-08T17:07:51;92577.84;;;-1.66;82.35
71057;BME280;58380;48.312;9.246;2022-12-08T17:10:19;92553.88;;;-1.80;82.57
71057;BME280;58380;48.312;9.246;2022-12-08T17:12:47;92576.91;;;-1.78;82.49
71057;BME280;58380;48.312;9.246;2022-12-08T17:15:18;92593.81;;;-1.76;82.76
71057;BME280;58380;48.312;9.246;2022-12-08T17:17:45;92569.44;;;-1.93;82.60
71057;BME280;58380;48.312;9.246;2022-12-08T17:20:14;92577.72;;;-1.78;82.50
71057;BME280;58380;48.312;9.246;2022-12-08T17:22:42;92573.75;;;-1.80;82.68
71057;BME280;58380;48.312;9.246;2022-12-08T17:25:09;92579.78;;;-1.93;82.44
71057;BME280;58380;48.312;9.246;2022-12-08T17:27:35;92579.25;;;-2.02;83.18
71057;BME280;58380;48.312;9.246;2022-12-08T17:30:02;92554.28;;;-2.21;83.94
71057;BME280;58380;48.312;9.246;2022-12-08T17:32:29;92566.47;;;-2.35;84.93
71057;BME280;58380;48.312;9.246;2022-12-08T17:34:55;92559.41;;;-2.59;85.62
71057;BME280;58380;48.312;9.246;2022-12-08T17:37:20;92583.03;;;-2.49;85.48
71057;BME280;58380;48.312;9.246;2022-12-08T17:39:46;92567.72;;;-2.57;85.21
71057;BME280;58380;48.312;9.246;2022-12-08T17:42:11;92566.41;;;-2.80;85.37
71057;BME280;58380;48.312;9.246;2022-12-08T17:44:37;92583.81;;;-2.55;85.85
71057;BME280;58380;48.312;9.246;2022-12-08T17:47:03;92560.22;;;-2.72;85.66
71057;BME280;58380;48.312;9.246;2022-12-08T17:49:29;92587.84;;;-2.59;85.62
71057;BME280;58380;48.312;9.246;2022-12-08T17:51:59;92582.50;;;-2.71;85.97
71057;BME280;58380;48.312;9.246;2022-12-08T17:54:27;92567.22;;;-2.93;86.58
71057;BME280;58380;48.312;9.246;2022-12-08T17:56:54;92548.78;;;-3.10;86.43
71057;BME280;58380;48.312;9.246;2022-12-08T17:59:23;92580.53;;;-2.89;86.66
71057;BME280;58380;48.312;9.246;2022-12-08T18:01:51;92586.91;;;-2.92;86.04
71057;BME280;58380;48.312;9.246;2022-12-08T18:04:18;92576.97;;;-2.95;86.42
71057;BME280;58380;48.312;9.246;2022-12-08T18:06:44;92592.28;;;-3.07;87.22
71057;BME280;58380;48.312;9.246;2022-12-08T18:09:09;92558.56;;;-3.32;87.45
71057;BME280;58380;48.312;9.246;2022-12-08T18:11:35;92583.56;;;-3.26;87.84
71057;BME280;58380;48.312;9.246;2022-12-08T18:14:02;92576.03;;;-3.34;87.95
71057;BME280;58380;48.312;9.246;2022-12-08T18:16:34;92584.16;;;-3.37;87.51
71057;BME280;58380;48.312;9.246;2022-12-08T18:19:02;92583.56;;;-3.39;87.27
71057;BME280;58380;48.312;9.246;2022-12-08T18:21:28;92580.16;;;-3.53;87.49
71057;BME280;58380;48.312;9.246;2022-12-08T18:23:53;92591.91;;;-3.57;87.59
71057;BME280;58380;48.312;9.246;2022-12-08T18:26:19;92613.72;;;-3.46;87.30
71057;BME280;58380;48.312;9.246;2022-12-08T18:28:44;92603.59;;;-3.61;88.64
71057;BME280;58380;48.312;9.246;2022-12-08T18:31:13;92568.25;;;-3.80;88.26
71057;BME280;58380;48.312;9.246;2022-12-08T18:33:42;92594.25;;;-3.69;88.13
71057;BME280;58380;48.312;9.246;2022-12-08T18:36:11;92585.72;;;-3.69;88.18
71057;BME280;58380;48.312;9.246;2022-12-08T18:38:39;92584.69;;;-3.88;88.55
71057;BME280;58380;48.312;9.246;2022-12-08T18:41:12;92592.63;;;-3.90;88.97
71057;BME280;58380;48.312;9.246;2022-12-08T18:43:39;92571.97;;;-4.03;88.93
71057;BME280;58380;48.312;9.246;2022-12-08T18:46:07;92542.97;;;-4.31;89.09
71057;BME280;58380;48.312;9.246;2022-12-08T18:48:36;92585.66;;;-4.02;89.38
71057;BME280;58380;48.312;9.246;2022-12-08T18:51:11;92589.84;;;-4.01;89.32
71057;BME280;58380;48.312;9.246;2022-12-08T18:53:38;92578.06;;;-4.17;90.78
71057;BME280;58380;48.312;9.246;2022-12-08T18:56:04;92580.03;;;-4.26;91.51
71057;BME280;58380;48.312;9.246;2022-12-08T18:58:31;92579.03;;;-4.31;91.46
71057;BME280;58380;48.312;9.246;2022-12-08T19:00:56;92566.53;;;-4.41;91.28
71057;BME280;58380;48.312;9.246;2022-12-08T19:03:22;92573.69;;;-4.37;91.07
71057;BME280;58380;48.312;9.246;2022-12-08T19:05:48;92549.25;;;-4.54;90.73
71057;BME280;58380;48.312;9.246;2022-12-08T19:08:13;92580.19;;;-4.41;90.83
71057;BME280;58380;48.312;9.246;2022-12-08T19:10:39;92543.63;;;-4.64;90.69
71057;BME280;58380;48.312;9.246;2022-12-08T19:13:05;92567.72;;;-4.44;90.48
71057;BME280;58380;48.312;9.246;2022-12-08T19:15:33;92561.34;;;-4.48;90.90
71057;BME280;58380;48.312;9.246;2022-12-08T19:17:59;92522.59;;;-4.81;90.89
71057;BME280;58380;48.312;9.246;2022-12-08T19:20:25;92525.13;;;-4.88;91.14
71057;BME280;58380;48.312;9.246;2022-12-08T19:22:51;92567.06;;;-4.59;91.10
71057;BME280;58380;48.312;9.246;2022-12-08T19:25:17;92556.91;;;-4.67;91.04
71057;BME280;58380;48.312;9.246;2022-12-08T19:27:42;92571.16;;;-4.71;91.13
71057;BME280;58380;48.312;9.246;2022-12-08T19:30:10;92528.16;;;-5.12;90.61
71057;BME280;58380;48.312;9.246;2022-12-08T19:32:35;92564.72;;;-4.89;91.59
71057;BME280;58380;48.312;9.246;2022-12-08T19:35:01;92536.50;;;-5.10;92.11
71057;BME280;58380;48.312;9.246;2022-12-08T19:37:31;92517.03;;;-5.26;93.03
71057;BME280;58380;48.312;9.246;2022-12-08T19:39:57;92513.41;;;-5.32;93.21
71057;BME280;58380;48.312;9.246;2022-12-08T19:42:54;92546.50;;;-5.22;93.66
71057;BME280;58380;48.312;9.246;2022-12-08T19:45:38;92533.97;;;-5.38;93.74
71057;BME280;58380;48.312;9.246;2022-12-08T19:48:04;92535.13;;;-5.41;93.70
71057;BME280;58380;48.312;9.246;2022-12-08T19:50:29;92541.28;;;-5.35;93.37
71057;BME280;58380;48.312;9.246;2022-12-08T19:53:08;92556.16;;;-5.31;93.07
71057;BME280;58380;48.312;9.246;2022-12-08T19:55:36;92490.25;;;-5.67;92.83
71057;BME280;58380;48.312;9.246;2022-12-08T19:58:03;92536.06;;;-5.49;92.96
71057;BME280;58380;48.312;9.246;2022-12-08T20:00:30;92550.78;;;-5.36;93.05
71057;BME280;58380;48.312;9.246;2022-12-08T20:02:57;92517.13;;;-5.69;92.90
71057;BME280;58380;48.312;9.246;2022-12-08T20:05:24;92539.38;;;-5.55;92.56
71057;BME280;58380;48.312;9.246;2022-12-08T20:07:50;92537.00;;;-5.56;92.52
71057;BME280;58380;48.312;9.246;2022-12-08T20:10:22;92526.28;;;-5.60;92.85
71057;BME280;58380;48.312;9.246;2022-12-08T20:12:53;92509.31;;;-5.82;93.44
71057;BME280;58380;48.312;9.246;2022-12-08T20:15:40;92531.38;;;-5.67;93.59
71057;BME280;58380;48.312;9.246;2022-12-08T20:18:05;92540.44;;;-5.71;93.09
71057;BME280;58380;48.312;9.246;2022-12-08T20:20:31;92502.72;;;-5.98;93.10
71057;BME280;58380;48.312;9.246;2022-12-08T20:22:56;92524.13;;;-5.85;92.92
71057;BME280;58380;48.312;9.246;2022-12-08T20:25:22;92517.50;;;-6.00;93.22
71057;BME280;58380;48.312;9.246;2022-12-08T20:27:47;92514.03;;;-6.14;93.83
71057;BME280;58380;48.312;9.246;2022-12-08T20:30:13;92462.91;;;-6.52;93.88
71057;BME280;58380;48.312;9.246;2022-12-08T20:32:38;92498.56;;;-6.21;93.64
71057;BME280;58380;48.312;9.246;2022-12-08T20:35:04;92524.28;;;-6.14;93.91
71057;BME280;58380;48.312;9.246;2022-12-08T20:37:29;92533.59;;;-6.13;93.80
71057;BME280;58380;48.312;9.246;2022-12-08T20:39:55;92514.47;;;-6.11;93.47
71057;BME280;58380;48.312;9.246;2022-12-08T20:42:20;92513.84;;;-6.13;93.24
71057;BME280;58380;48.312;9.246;2022-12-08T20:44:48;92513.22;;;-6.15;93.32
71057;BME280;58380;48.312;9.246;2022-12-08T20:47:13;92484.88;;;-6.28;93.19
71057;BME280;58380;48.312;9.246;2022-12-08T20:49:39;92531.38;;;-5.95;92.94
71057;BME280;58380;48.312;9.246;2022-12-08T20:52:05;92498.19;;;-6.39;92.94
71057;BME280;58380;48.312;9.246;2022-12-08T20:54:31;92552.72;;;-5.94;93.07
71057;BME280;58380;48.312;9.246;2022-12-08T20:56:57;92522.09;;;-6.17;93.01
71057;BME280;58380;48.312;9.246;2022-12-08T20:59:23;92543.81;;;-5.98;93.19
71057;BME280;58380;48.312;9.246;2022-12-08T21:01:51;92439.53;;;-6.64;93.53
71057;BME280;58380;48.312;9.246;2022-12-08T21:04:16;92547.78;;;-5.96;93.63
71057;BME280;58380;48.312;9.246;2022-12-08T21:06:42;92546.56;;;-6.00;93.52
71057;BME280;58380;48.312;9.246;2022-12-08T21:09:08;92530.19;;;-6.20;94.09
71057;BME280;58380;48.312;9.246;2022-12-08T21:11:33;92549.56;;;-6.18;94.38
71057;BME280;58380;48.312;9.246;2022-12-08T21:13:59;92551.25;;;-6.25;94.43
71057;BME280;58380;48.312;9.246;2022-12-08T21:16:25;92541.25;;;-6.20;94.44
71057;BME280;58380;48.312;9.246;2022-12-08T21:18:50;92499.88;;;-6.46;94.09
71057;BME280;58380;48.312;9.246;2022-12-08T21:21:16;92529.13;;;-6.26;93.93
71057;BME280;58380;48.312;9.246;2022-12-08T21:23:42;92541.59;;;-6.23;94.25
71057;BME280;58380;48.312;9.246;2022-12-08T21:26:16;92525.00;;;-6.42;94.66
71057;BME280;58380;48.312;9.246;2022-12-08T21:28:45;92524.22;;;-6.42;94.33
71057;BME280;58380;48.312;9.246;2022-12-08T21:31:14;92496.94;;;-6.65;94.32
71057;BME280;58380;48.312;9.246;2022-12-08T21:33:41;92452.28;;;-7.07;94.52
71057;BME280;58380;48.312;9.246;2022-12-08T21:36:11;92512.63;;;-6.75;94.38
71057;BME280;58380;48.312;9.246;2022-12-08T21:38:44;92534.13;;;-6.61;94.45
71057;BME280;58380;48.312;9.246;2022-12-08T21:41:13;92475.91;;;-7.11;94.70
71057;BME280;58380;48.312;9.246;2022-12-08T21:44:00;92525.41;;;-6.81;95.02
71057;BME280;58380;48.312;9.246;2022-12-08T21:46:26;92542.81;;;-6.77;94.92
71057;BME280;58380;48.312;9.246;2022-12-08T21:48:51;92492.88;;;-7.10;94.76
71057;BME280;58380;48.312;9.246;2022-12-08T21:51:17;92519.22;;;-7.02;94.71
71057;BME280;58380;48.312;9.246;2022-12-08T21:53:42;92451.53;;;-7.37;94.73
71057;BME280;58380;48.312;9.246;2022-12-08T21:56:08;92524.19;;;-7.00;94.86
71057;BME280;58380;48.312;9.246;2022-12-08T21:58:33;92531.09;;;-7.01;95.43
71057;BME280;58380;48.312;9.246;2022-12-08T22:01:04;92533.53;;;-6.92;95.58
71057;BME280;58380;48.312;9.246;2022-12-08T22:03:36;92456.41;;;-7.42;95.11
71057;BME280;58380;48.312;9.246;2022-12-08T22:06:11;92530.00;;;-6.91;95.18
71057;BME280;58380;48.312;9.246;2022-12-08T22:08:38;92550.78;;;-6.86;95.17
71057;BME280;58380;48.312;9.246;2022-12-08T22:11:05;92540.63;;;-6.95;95.40
71057;BME280;58380;48.312;9.246;2022-12-08T22:13:37;92539.81;;;-6.80;95.35
71057;BME280;58380;48.312;9.246;2022-12-08T22:16:05;92557.66;;;-6.72;95.28
71057;BME280;58380;48.312;9.246;2022-12-08T22:18:34;92491.22;;;-7.18;95.24